sensor_id;sensor_type;location;lat;lon;timestamp;temperature;humidity
67064;SHT30;58476;48.072;11.970;2024-01-10T00:02:08;21.04;39.60
67064;SHT30;58476;48.072;11.970;2024-01-10T00:04:33;21.06;39.73
67064;SHT30;58476;48.072;11.970;2024-01-10T00:06:58;21.06;39.68
67064;SHT30;58476;48.072;11.970;2024-01-10T00:09:23;21.04;39.60
67064;SHT30;58476;48.072;11.970;2024-01-10T00:11:49;21.01;39.47
67064;SHT30;58476;48.072;11.970;2024-01-10T00:14:14;21.00;39.55
67064;SHT30;58476;48.072;11.970;2024-01-10T00:16:39;20.98;39.58
67064;SHT30;58476;48.072;11.970;2024-01-10T00:19:05;20.97;39.46
67064;SHT30;58476;48.072;11.970;2024-01-10T00:21:30;20.96;39.62
67064;SHT30;58476;48.072;11.970;2024-01-10T00:23:55;20.94;39.63
67064;SHT30;58476;48.072;11.970;2024-01-10T00:26:21;20.93;39.68
67064;SHT30;58476;48.072;11.970;2024-01-10T00:28:46;20.93;39.49
67064;SHT30;58476;48.072;11.970;2024-01-10T00:31:12;20.91;39.48
67064;SHT30;58476;48.072;11.970;2024-01-10T00:33:38;20.90;39.56
67064;SHT30;58476;48.072;11.970;2024-01-10T00:36:04;20.88;39.52
67064;SHT30;58476;48.072;11.970;2024-01-10T00:38:29;20.88;39.65
67064;SHT30;58476;48.072;11.970;2024-01-10T00:40:54;20.86;39.66
67064;SHT30;58476;48.072;11.970;2024-01-10T00:43:20;20.86;39.55
67064;SHT30;58476;48.072;11.970;2024-01-10T00:45:45;20.83;39.54
67064;SHT30;58476;48.072;11.970;2024-01-10T00:48:10;20.83;39.51
67064;SHT30;58476;48.072;11.970;2024-01-10T00:50:36;20.84;39.52
67064;SHT30;58476;48.072;11.970;2024-01-10T00:53:01;20.83;39.63
67064;SHT30;58476;48.072;11.970;2024-01-10T00:55:26;20.86;39.54
67064;SHT30;58476;48.072;11.970;2024-01-10T00:57:52;20.88;39.50
67064;SHT30;58476;48.072;11.970;2024-01-10T01:00:17;20.88;39.45
67064;SHT30;58476;48.072;11.970;2024-01-10T01:02:42;20.91;39.50
67064;SHT30;58476;48.072;11.970;2024-01-10T01:05:08;20.94;39.38
67064;SHT30;58476;48.072;11.970;2024-01-10T01:07:33;20.93;39.48
67064;SHT30;58476;48.072;11.970;2024-01-10T01:09:59;20.93;39.38
67064;SHT30;58476;48.072;11.970;2024-01-10T01:12:24;20.94;39.25
67064;SHT30;58476;48.072;11.970;2024-01-10T01:14:49;20.97;39.19
67064;SHT30;58476;48.072;11.970;2024-01-10T01:17:15;20.97;39.32
67064;SHT30;58476;48.072;11.970;2024-01-10T01:19:40;20.98;39.21
67064;SHT30;58476;48.072;11.970;2024-01-10T01:22:05;20.98;39.28
67064;SHT30;58476;48.072;11.970;2024-01-10T01:24:31;21.00;39.18
67064;SHT30;58476;48.072;11.970;2024-01-10T01:26:56;20.98;39.32
67064;SHT30;58476;48.072;11.970;2024-01-10T01:29:21;20.98;39.15
67064;SHT30;58476;48.072;11.970;2024-01-10T01:31:47;20.97;39.26
67064;SHT30;58476;48.072;11.970;2024-01-10T01:34:12;20.98;39.34
67064;SHT30;58476;48.072;11.970;2024-01-10T01:36:38;20.96;39.27
67064;SHT30;58476;48.072;11.970;2024-01-10T01:39:03;20.96;39.33
67064;SHT30;58476;48.072;11.970;2024-01-10T01:41:28;20.96;39.18
67064;SHT30;58476;48.072;11.970;2024-01-10T01:43:54;20.96;39.26
67064;SHT30;58476;48.072;11.970;2024-01-10T01:46:19;20.96;39.14
67064;SHT30;58476;48.072;11.970;2024-01-10T01:48:45;20.96;39.25
67064;SHT30;58476;48.072;11.970;2024-01-10T01:51:10;20.94;39.21
67064;SHT30;58476;48.072;11.970;2024-01-10T01:53:36;20.94;39.22
67064;SHT30;58476;48.072;11.970;2024-01-10T01:56:09;20.96;39.23
67064;SHT30;58476;48.072;11.970;2024-01-10T01:58:36;20.97;39.12
67064;SHT30;58476;48.072;11.970;2024-01-10T02:01:04;20.91;39.05
67064;SHT30;58476;48.072;11.970;2024-01-10T02:03:34;20.90;39.06
67064;SHT30;58476;48.072;11.970;2024-01-10T02:06:00;20.87;39.13
67064;SHT30;58476;48.072;11.970;2024-01-10T02:08:25;20.86;39.02
67064;SHT30;58476;48.072;11.970;2024-01-10T02:10:51;20.83;39.01
67064;SHT30;58476;48.072;11.970;2024-01-10T02:13:16;20.81;39.10
67064;SHT30;58476;48.072;11.970;2024-01-10T02:15:42;20.79;39.09
67064;SHT30;58476;48.072;11.970;2024-01-10T02:18:07;20.77;39.20
67064;SHT30;58476;48.072;11.970;2024-01-10T02:20:32;20.75;39.13
67064;SHT30;58476;48.072;11.970;2024-01-10T02:22:58;20.73;39.21
67064;SHT30;58476;48.072;11.970;2024-01-10T02:25:23;20.69;39.27
67064;SHT30;58476;48.072;11.970;2024-01-10T02:27:48;20.67;39.18
67064;SHT30;58476;48.072;11.970;2024-01-10T02:30:14;20.72;39.15
67064;SHT30;58476;48.072;11.970;2024-01-10T02:32:39;20.65;39.12
67064;SHT30;58476;48.072;11.970;2024-01-10T02:35:06;20.65;39.23
67064;SHT30;58476;48.072;11.970;2024-01-10T02:37:31;20.65;39.13
67064;SHT30;58476;48.072;11.970;2024-01-10T02:39:57;20.65;39.20
67064;SHT30;58476;48.072;11.970;2024-01-10T02:42:22;20.62;39.21
67064;SHT30;58476;48.072;11.970;2024-01-10T02:44:47;20.59;39.25
67064;SHT30;58476;48.072;11.970;2024-01-10T02:47:13;20.60;39.15
67064;SHT30;58476;48.072;11.970;2024-01-10T02:49:38;20.57;39.33
67064;SHT30;58476;48.072;11.970;2024-01-10T02:52:04;20.56;39.55
67064;SHT30;58476;48.072;11.970;2024-01-10T02:54:29;20.56;39.17
67064;SHT30;58476;48.072;11.970;2024-01-10T02:56:54;20.55;39.35
67064;SHT30;58476;48.072;11.970;2024-01-10T02:59:20;20.53;39.28
67064;SHT30;58476;48.072;11.970;2024-01-10T03:01:45;20.50;39.19
67064;SHT30;58476;48.072;11.970;2024-01-10T03:04:10;20.49;39.21
67064;SHT30;58476;48.072;11.970;2024-01-10T03:06:36;20.49;39.26
67064;SHT30;58476;48.072;11.970;2024-01-10T03:09:01;20.45;39.36
67064;SHT30;58476;48.072;11.970;2024-01-10T03:11:26;20.46;39.24
67064;SHT30;58476;48.072;11.970;2024-01-10T03:14:03;20.45;39.26
67064;SHT30;58476;48.072;11.970;2024-01-10T03:16:30;20.43;39.23
67064;SHT30;58476;48.072;11.970;2024-01-10T03:18:55;20.42;39.16
67064;SHT30;58476;48.072;11.970;2024-01-10T03:21:20;20.42;39.23
67064;SHT30;58476;48.072;11.970;2024-01-10T03:23:46;20.42;39.20
67064;SHT30;58476;48.072;11.970;2024-01-10T03:26:11;20.42;39.21
67064;SHT30;58476;48.072;11.970;2024-01-10T03:28:36;20.40;39.27
67064;SHT30;58476;48.072;11.970;2024-01-10T03:31:02;20.38;39.25
67064;SHT30;58476;48.072;11.970;2024-01-10T03:33:27;20.38;39.17
67064;SHT30;58476;48.072;11.970;2024-01-10T03:35:52;20.38;39.25
67064;SHT30;58476;48.072;11.970;2024-01-10T03:38:18;20.39;39.30
67064;SHT30;58476;48.072;11.970;2024-01-10T03:40:43;20.38;39.27
67064;SHT30;58476;48.072;11.970;2024-01-10T03:43:08;20.40;39.13
67064;SHT30;58476;48.072;11.970;2024-01-10T03:45:33;20.43;39.04
67064;SHT30;58476;48.072;11.970;2024-01-10T03:47:59;20.45;38.95
67064;SHT30;58476;48.072;11.970;2024-01-10T03:50:24;20.45;38.94
67064;SHT30;58476;48.072;11.970;2024-01-10T03:52:49;20.47;38.85
67064;SHT30;58476;48.072;11.970;2024-01-10T03:55:15;20.50;38.90
67064;SHT30;58476;48.072;11.970;2024-01-10T03:57:41;20.47;39.03
67064;SHT30;58476;48.072;11.970;2024-01-10T04:00:06;20.49;39.06
67064;SHT30;58476;48.072;11.970;2024-01-10T04:02:32;20.50;38.99
67064;SHT30;58476;48.072;11.970;2024-01-10T04:04:58;20.49;38.90
67064;SHT30;58476;48.072;11.970;2024-01-10T04:07:23;20.49;38.94
67064;SHT30;58476;48.072;11.970;2024-01-10T04:09:48;20.52;38.87
67064;SHT30;58476;48.072;11.970;2024-01-10T04:12:14;20.52;38.99
67064;SHT30;58476;48.072;11.970;2024-01-10T04:14:39;20.52;38.87
67064;SHT30;58476;48.072;11.970;2024-01-10T04:17:04;20.50;38.87
67064;SHT30;58476;48.072;11.970;2024-01-10T04:19:30;20.53;38.76
67064;SHT30;58476;48.072;11.970;2024-01-10T04:21:55;20.50;38.71
67064;SHT30;58476;48.072;11.970;2024-01-10T04:24:20;20.52;38.72
67064;SHT30;58476;48.072;11.970;2024-01-10T04:26:46;20.52;38.75
67064;SHT30;58476;48.072;11.970;2024-01-10T04:29:11;20.52;38.67
67064;SHT30;58476;48.072;11.970;2024-01-10T04:31:36;20.53;38.64
67064;SHT30;58476;48.072;11.970;2024-01-10T04:34:02;20.52;38.61
67064;SHT30;58476;48.072;11.970;2024-01-10T04:36:27;20.50;38.61
67064;SHT30;58476;48.072;11.970;2024-01-10T04:38:52;20.50;38.59
67064;SHT30;58476;48.072;11.970;2024-01-10T04:41:18;20.49;38.75
67064;SHT30;58476;48.072;11.970;2024-01-10T04:43:43;20.45;38.87
67064;SHT30;58476;48.072;11.970;2024-01-10T04:46:08;20.46;38.93
67064;SHT30;58476;48.072;11.970;2024-01-10T04:48:34;20.39;38.95
67064;SHT30;58476;48.072;11.970;2024-01-10T04:50:59;20.39;39.00
67064;SHT30;58476;48.072;11.970;2024-01-10T04:53:24;20.39;38.94
67064;SHT30;58476;48.072;11.970;2024-01-10T04:55:50;20.38;38.95
67064;SHT30;58476;48.072;11.970;2024-01-10T04:58:15;20.32;39.05
67064;SHT30;58476;48.072;11.970;2024-01-10T05:00:40;20.30;39.01
67064;SHT30;58476;48.072;11.970;2024-01-10T05:03:06;20.29;38.93
67064;SHT30;58476;48.072;11.970;2024-01-10T05:05:31;20.32;39.15
67064;SHT30;58476;48.072;11.970;2024-01-10T05:07:56;20.30;39.11
67064;SHT30;58476;48.072;11.970;2024-01-10T05:10:21;20.33;39.36
67064;SHT30;58476;48.072;11.970;2024-01-10T05:12:47;20.33;39.44
67064;SHT30;58476;48.072;11.970;2024-01-10T05:15:12;20.29;39.45
67064;SHT30;58476;48.072;11.970;2024-01-10T05:17:37;20.30;39.70
67064;SHT30;58476;48.072;11.970;2024-01-10T05:20:03;20.32;39.70
67064;SHT30;58476;48.072;11.970;2024-01-10T05:22:29;20.29;39.87
67064;SHT30;58476;48.072;11.970;2024-01-10T05:24:54;20.32;39.90
67064;SHT30;58476;48.072;11.970;2024-01-10T05:27:19;20.33;40.26
67064;SHT30;58476;48.072;11.970;2024-01-10T05:29:44;20.32;39.92
67064;SHT30;58476;48.072;11.970;2024-01-10T05:32:10;20.32;39.99
67064;SHT30;58476;48.072;11.970;2024-01-10T05:34:35;20.33;40.12
67064;SHT30;58476;48.072;11.970;2024-01-10T05:37:00;20.30;39.90
67064;SHT30;58476;48.072;11.970;2024-01-10T05:39:26;20.30;40.26
67064;SHT30;58476;48.072;11.970;2024-01-10T05:41:51;20.28;40.46
67064;SHT30;58476;48.072;11.970;2024-01-10T05:44:16;20.26;40.22
67064;SHT30;58476;48.072;11.970;2024-01-10T05:46:42;20.22;40.19
67064;SHT30;58476;48.072;11.970;2024-01-10T05:49:08;20.26;40.21
67064;SHT30;58476;48.072;11.970;2024-01-10T05:51:33;20.24;40.30
67064;SHT30;58476;48.072;11.970;2024-01-10T05:53:58;20.29;40.43
67064;SHT30;58476;48.072;11.970;2024-01-10T05:56:24;20.25;40.43
67064;SHT30;58476;48.072;11.970;2024-01-10T05:58:49;20.25;40.50
67064;SHT30;58476;48.072;11.970;2024-01-10T06:01:16;20.30;40.95
67064;SHT30;58476;48.072;11.970;2024-01-10T06:03:42;20.32;40.82
67064;SHT30;58476;48.072;11.970;2024-01-10T06:06:07;20.32;40.48
67064;SHT30;58476;48.072;11.970;2024-01-10T06:08:32;20.32;40.61
67064;SHT30;58476;48.072;11.970;2024-01-10T06:10:57;20.30;40.77
67064;SHT30;58476;48.072;11.970;2024-01-10T06:13:23;20.32;40.69
67064;SHT30;58476;48.072;11.970;2024-01-10T06:15:49;20.29;39.90
67064;SHT30;58476;48.072;11.970;2024-01-10T06:18:14;20.29;40.33
67064;SHT30;58476;48.072;11.970;2024-01-10T06:20:39;20.32;40.19
67064;SHT30;58476;48.072;11.970;2024-01-10T06:23:05;20.32;40.27
67064;SHT30;58476;48.072;11.970;2024-01-10T06:25:30;20.36;40.11
67064;SHT30;58476;48.072;11.970;2024-01-10T06:27:55;20.36;39.81
67064;SHT30;58476;48.072;11.970;2024-01-10T06:30:21;20.36;39.81
67064;SHT30;58476;48.072;11.970;2024-01-10T06:32:46;20.39;39.42
67064;SHT30;58476;48.072;11.970;2024-01-10T06:35:11;20.38;38.43
67064;SHT30;58476;48.072;11.970;2024-01-10T06:37:37;20.35;39.02
67064;SHT30;58476;48.072;11.970;2024-01-10T06:40:03;20.36;38.94
67064;SHT30;58476;48.072;11.970;2024-01-10T06:42:28;20.36;38.90
67064;SHT30;58476;48.072;11.970;2024-01-10T06:44:54;20.35;38.75
67064;SHT30;58476;48.072;11.970;2024-01-10T06:47:19;20.33;38.67
67064;SHT30;58476;48.072;11.970;2024-01-10T06:49:44;20.33;38.39
67064;SHT30;58476;48.072;11.970;2024-01-10T06:52:09;20.30;38.69
67064;SHT30;58476;48.072;11.970;2024-01-10T06:54:35;20.29;38.73
67064;SHT30;58476;48.072;11.970;2024-01-10T06:57:00;20.36;38.60
67064;SHT30;58476;48.072;11.970;2024-01-10T06:59:25;20.32;38.76
67064;SHT30;58476;48.072;11.970;2024-01-10T07:01:52;20.29;39.07
67064;SHT30;58476;48.072;11.970;2024-01-10T07:04:17;20.26;38.74
67064;SHT30;58476;48.072;11.970;2024-01-10T07:06:43;20.24;38.27
67064;SHT30;58476;48.072;11.970;2024-01-10T07:09:08;20.24;38.65
67064;SHT30;58476;48.072;11.970;2024-01-10T07:11:33;20.21;38.64
67064;SHT30;58476;48.072;11.970;2024-01-10T07:13:59;20.21;38.83
67064;SHT30;58476;48.072;11.970;2024-01-10T07:16:24;20.22;38.73
67064;SHT30;58476;48.072;11.970;2024-01-10T07:18:49;20.19;39.25
67064;SHT30;58476;48.072;11.970;2024-01-10T07:21:15;20.19;39.35
67064;SHT30;58476;48.072;11.970;2024-01-10T07:23:40;20.17;39.85
67064;SHT30;58476;48.072;11.970;2024-01-10T07:26:06;20.14;39.90
67064;SHT30;58476;48.072;11.970;2024-01-10T07:28:31;20.12;39.49
67064;SHT30;58476;48.072;11.970;2024-01-10T07:30:56;20.14;39.83
67064;SHT30;58476;48.072;11.970;2024-01-10T07:33:22;20.12;39.98
67064;SHT30;58476;48.072;11.970;2024-01-10T07:35:47;20.14;40.02
67064;SHT30;58476;48.072;11.970;2024-01-10T07:38:12;20.09;40.06
67064;SHT30;58476;48.072;11.970;2024-01-10T07:40:38;20.12;40.18
67064;SHT30;58476;48.072;11.970;2024-01-10T07:43:04;20.05;40.15
67064;SHT30;58476;48.072;11.970;2024-01-10T07:45:29;20.08;40.65
67064;SHT30;58476;48.072;11.970;2024-01-10T07:47:54;20.09;40.32
67064;SHT30;58476;48.072;11.970;2024-01-10T07:50:20;20.07;40.45
67064;SHT30;58476;48.072;11.970;2024-01-10T07:52:45;20.07;40.33
67064;SHT30;58476;48.072;11.970;2024-01-10T07:55:11;20.04;40.36
67064;SHT30;58476;48.072;11.970;2024-01-10T07:57:37;20.01;40.24
67064;SHT30;58476;48.072;11.970;2024-01-10T08:00:05;19.98;40.20
67064;SHT30;58476;48.072;11.970;2024-01-10T08:02:34;19.99;40.17
67064;SHT30;58476;48.072;11.970;2024-01-10T08:05:03;19.97;40.16
67064;SHT30;58476;48.072;11.970;2024-01-10T08:07:28;19.97;40.44
67064;SHT30;58476;48.072;11.970;2024-01-10T08:09:54;19.95;40.29
67064;SHT30;58476;48.072;11.970;2024-01-10T08:12:19;19.94;40.12
67064;SHT30;58476;48.072;11.970;2024-01-10T08:14:44;19.94;40.60
67064;SHT30;58476;48.072;11.970;2024-01-10T08:17:09;19.97;40.36
67064;SHT30;58476;48.072;11.970;2024-01-10T08:19:35;19.94;40.22
67064;SHT30;58476;48.072;11.970;2024-01-10T08:22:00;19.94;40.39
67064;SHT30;58476;48.072;11.970;2024-01-10T08:24:25;19.92;40.30
67064;SHT30;58476;48.072;11.970;2024-01-10T08:26:50;19.94;40.47
67064;SHT30;58476;48.072;11.970;2024-01-10T08:29:16;19.91;40.52
67064;SHT30;58476;48.072;11.970;2024-01-10T08:31:41;19.91;40.54
67064;SHT30;58476;48.072;11.970;2024-01-10T08:34:06;19.92;40.56
67064;SHT30;58476;48.072;11.970;2024-01-10T08:36:32;19.94;40.66
67064;SHT30;58476;48.072;11.970;2024-01-10T08:38:57;19.92;40.68
67064;SHT30;58476;48.072;11.970;2024-01-10T08:41:22;19.94;40.75
67064;SHT30;58476;48.072;11.970;2024-01-10T08:43:47;19.94;40.81
67064;SHT30;58476;48.072;11.970;2024-01-10T08:46:13;19.95;40.84
67064;SHT30;58476;48.072;11.970;2024-01-10T08:48:38;19.92;40.84
67064;SHT30;58476;48.072;11.970;2024-01-10T08:51:04;19.94;41.29
67064;SHT30;58476;48.072;11.970;2024-01-10T08:53:29;19.97;41.67
67064;SHT30;58476;48.072;11.970;2024-01-10T08:55:54;19.99;42.48
67064;SHT30;58476;48.072;11.970;2024-01-10T08:58:20;20.02;43.42
67064;SHT30;58476;48.072;11.970;2024-01-10T09:00:45;19.99;44.30
67064;SHT30;58476;48.072;11.970;2024-01-10T09:03:10;20.05;43.38
67064;SHT30;58476;48.072;11.970;2024-01-10T09:05:36;20.04;44.82
67064;SHT30;58476;48.072;11.970;2024-01-10T09:08:01;20.05;43.80
67064;SHT30;58476;48.072;11.970;2024-01-10T09:10:26;20.04;43.21
67064;SHT30;58476;48.072;11.970;2024-01-10T09:12:52;19.97;42.23
67064;SHT30;58476;48.072;11.970;2024-01-10T09:15:17;19.97;42.31
67064;SHT30;58476;48.072;11.970;2024-01-10T09:17:43;19.97;43.19
67064;SHT30;58476;48.072;11.970;2024-01-10T09:20:10;19.95;42.43
67064;SHT30;58476;48.072;11.970;2024-01-10T09:22:36;19.94;42.79
67064;SHT30;58476;48.072;11.970;2024-01-10T09:25:02;19.91;42.43
67064;SHT30;58476;48.072;11.970;2024-01-10T09:27:27;19.92;43.27
67064;SHT30;58476;48.072;11.970;2024-01-10T09:29:53;19.92;43.34
67064;SHT30;58476;48.072;11.970;2024-01-10T09:32:18;19.91;42.93
67064;SHT30;58476;48.072;11.970;2024-01-10T09:34:43;19.92;42.61
67064;SHT30;58476;48.072;11.970;2024-01-10T09:37:09;19.92;45.35
67064;SHT30;58476;48.072;11.970;2024-01-10T09:39:34;19.95;44.43
67064;SHT30;58476;48.072;11.970;2024-01-10T09:42:00;19.95;43.78
67064;SHT30;58476;48.072;11.970;2024-01-10T09:44:26;19.99;44.27
67064;SHT30;58476;48.072;11.970;2024-01-10T09:46:52;20.05;43.76
67064;SHT30;58476;48.072;11.970;2024-01-10T09:49:18;20.12;43.49
67064;SHT30;58476;48.072;11.970;2024-01-10T09:51:47;20.24;43.82
67064;SHT30;58476;48.072;11.970;2024-01-10T09:54:15;20.33;43.85
67064;SHT30;58476;48.072;11.970;2024-01-10T09:56:41;20.50;43.17
67064;SHT30;58476;48.072;11.970;2024-01-10T09:59:07;20.59;43.91
67064;SHT30;58476;48.072;11.970;2024-01-10T10:01:33;20.59;42.78
67064;SHT30;58476;48.072;11.970;2024-01-10T10:03:59;20.56;42.83
67064;SHT30;58476;48.072;11.970;2024-01-10T10:06:25;20.57;43.31
67064;SHT30;58476;48.072;11.970;2024-01-10T10:08:50;20.55;42.79
67064;SHT30;58476;48.072;11.970;2024-01-10T10:11:16;20.53;42.90
67064;SHT30;58476;48.072;11.970;2024-01-10T10:13:41;20.53;42.75
67064;SHT30;58476;48.072;11.970;2024-01-10T10:16:06;20.56;42.76
67064;SHT30;58476;48.072;11.970;2024-01-10T10:18:32;20.57;42.08
67064;SHT30;58476;48.072;11.970;2024-01-10T10:23:32;20.59;42.19
67064;SHT30;58476;48.072;11.970;2024-01-10T10:25:57;20.63;41.76
67064;SHT30;58476;48.072;11.970;2024-01-10T10:28:28;20.63;41.37
67064;SHT30;58476;48.072;11.970;2024-01-10T10:30:54;20.66;41.31
67064;SHT30;58476;48.072;11.970;2024-01-10T10:33:20;20.67;41.41
67064;SHT30;58476;48.072;11.970;2024-01-10T10:35:45;20.66;41.04
67064;SHT30;58476;48.072;11.970;2024-01-10T10:38:11;20.69;41.36
67064;SHT30;58476;48.072;11.970;2024-01-10T10:40:36;20.75;41.27
67064;SHT30;58476;48.072;11.970;2024-01-10T10:43:03;20.75;41.47
67064;SHT30;58476;48.072;11.970;2024-01-10T10:45:31;20.77;42.55
67064;SHT30;58476;48.072;11.970;2024-01-10T10:48:00;20.77;41.66
67064;SHT30;58476;48.072;11.970;2024-01-10T10:50:35;20.83;41.24
67064;SHT30;58476;48.072;11.970;2024-01-10T10:53:03;20.83;41.61
67064;SHT30;58476;48.072;11.970;2024-01-10T10:55:29;20.90;41.49
67064;SHT30;58476;48.072;11.970;2024-01-10T10:57:56;20.88;41.69
67064;SHT30;58476;48.072;11.970;2024-01-10T11:00:21;20.87;41.41
67064;SHT30;58476;48.072;11.970;2024-01-10T11:02:47;20.88;41.47
67064;SHT30;58476;48.072;11.970;2024-01-10T11:05:13;20.91;42.12
67064;SHT30;58476;48.072;11.970;2024-01-10T11:07:39;20.94;42.17
67064;SHT30;58476;48.072;11.970;2024-01-10T11:10:10;21.00;42.40
67064;SHT30;58476;48.072;11.970;2024-01-10T11:23:39;20.97;42.11
67064;SHT30;58476;48.072;11.970;2024-01-10T11:26:07;21.01;42.00
67064;SHT30;58476;48.072;11.970;2024-01-10T11:28:32;21.07;41.85
67064;SHT30;58476;48.072;11.970;2024-01-10T11:30:58;21.07;42.08
67064;SHT30;58476;48.072;11.970;2024-01-10T11:33:25;21.08;41.68
67064;SHT30;58476;48.072;11.970;2024-01-10T11:36:16;21.07;41.55
67064;SHT30;58476;48.072;11.970;2024-01-10T11:41:33;21.08;41.46
67064;SHT30;58476;48.072;11.970;2024-01-10T11:46:40;21.14;42.03
67064;SHT30;58476;48.072;11.970;2024-01-10T11:49:09;21.12;41.67
67064;SHT30;58476;48.072;11.970;2024-01-10T11:51:37;21.21;41.95
67064;SHT30;58476;48.072;11.970;2024-01-10T11:54:03;21.24;41.93
67064;SHT30;58476;48.072;11.970;2024-01-10T11:56:39;21.21;41.47
67064;SHT30;58476;48.072;11.970;2024-01-10T11:59:09;21.23;41.79
67064;SHT30;58476;48.072;11.970;2024-01-10T12:01:36;21.23;41.85
67064;SHT30;58476;48.072;11.970;2024-01-10T12:04:02;21.25;41.66
67064;SHT30;58476;48.072;11.970;2024-01-10T12:06:27;21.27;41.58
67064;SHT30;58476;48.072;11.970;2024-01-10T12:08:53;21.30;41.64
67064;SHT30;58476;48.072;11.970;2024-01-10T12:11:18;21.37;41.71
67064;SHT30;58476;48.072;11.970;2024-01-10T12:13:44;21.27;41.18
67064;SHT30;58476;48.072;11.970;2024-01-10T12:16:11;21.31;41.42
67064;SHT30;58476;48.072;11.970;2024-01-10T12:18:37;21.38;41.57
67064;SHT30;58476;48.072;11.970;2024-01-10T12:21:02;21.32;41.36
67064;SHT30;58476;48.072;11.970;2024-01-10T12:23:28;21.34;41.38
67064;SHT30;58476;48.072;11.970;2024-01-10T12:25:53;21.32;41.00
67064;SHT30;58476;48.072;11.970;2024-01-10T12:28:18;21.42;41.35
67064;SHT30;58476;48.072;11.970;2024-01-10T12:30:44;21.42;40.28
67064;SHT30;58476;48.072;11.970;2024-01-10T12:33:09;21.38;39.51
67064;SHT30;58476;48.072;11.970;2024-01-10T12:35:34;21.37;39.17
67064;SHT30;58476;48.072;11.970;2024-01-10T12:38:00;21.30;39.90
67064;SHT30;58476;48.072;11.970;2024-01-10T12:40:25;21.28;39.81
67064;SHT30;58476;48.072;11.970;2024-01-10T12:43:04;21.25;40.00
67064;SHT30;58476;48.072;11.970;2024-01-10T12:45:30;21.25;40.14
67064;SHT30;58476;48.072;11.970;2024-01-10T12:47:57;21.28;40.44
67064;SHT30;58476;48.072;11.970;2024-01-10T12:50:23;21.38;40.45
67064;SHT30;58476;48.072;11.970;2024-01-10T12:52:48;21.38;40.82
67064;SHT30;58476;48.072;11.970;2024-01-10T12:55:14;21.41;40.87
67064;SHT30;58476;48.072;11.970;2024-01-10T12:57:40;21.45;40.82
67064;SHT30;58476;48.072;11.970;2024-01-10T13:00:07;21.44;40.98
67064;SHT30;58476;48.072;11.970;2024-01-10T13:02:32;21.47;40.96
67064;SHT30;58476;48.072;11.970;2024-01-10T13:04:58;21.47;40.93
67064;SHT30;58476;48.072;11.970;2024-01-10T13:07:24;21.51;41.03
67064;SHT30;58476;48.072;11.970;2024-01-10T13:09:49;21.56;41.02
67064;SHT30;58476;48.072;11.970;2024-01-10T13:12:14;21.62;40.83
67064;SHT30;58476;48.072;11.970;2024-01-10T13:14:39;21.71;39.79
67064;SHT30;58476;48.072;11.970;2024-01-10T13:17:05;21.72;41.01
67064;SHT30;58476;48.072;11.970;2024-01-10T13:19:30;21.76;41.50
67064;SHT30;58476;48.072;11.970;2024-01-10T13:21:56;21.74;41.66
67064;SHT30;58476;48.072;11.970;2024-01-10T13:24:21;21.68;41.60
67064;SHT30;58476;48.072;11.970;2024-01-10T13:26:46;21.65;41.82
67064;SHT30;58476;48.072;11.970;2024-01-10T13:29:12;21.63;41.84
67064;SHT30;58476;48.072;11.970;2024-01-10T13:31:37;21.65;42.31
67064;SHT30;58476;48.072;11.970;2024-01-10T13:34:02;21.65;42.71
67064;SHT30;58476;48.072;11.970;2024-01-10T13:36:28;21.71;42.74
67064;SHT30;58476;48.072;11.970;2024-01-10T13:38:53;21.68;41.79
67064;SHT30;58476;48.072;11.970;2024-01-10T13:41:18;21.59;40.66
67064;SHT30;58476;48.072;11.970;2024-01-10T13:43:43;21.58;40.68
67064;SHT30;58476;48.072;11.970;2024-01-10T13:46:09;21.55;40.94
67064;SHT30;58476;48.072;11.970;2024-01-10T13:48:34;21.58;41.03
67064;SHT30;58476;48.072;11.970;2024-01-10T13:50:59;21.56;40.63
67064;SHT30;58476;48.072;11.970;2024-01-10T13:53:25;21.55;40.76
67064;SHT30;58476;48.072;11.970;2024-01-10T13:55:50;21.51;40.62
67064;SHT30;58476;48.072;11.970;2024-01-10T13:58:15;21.48;39.81
67064;SHT30;58476;48.072;11.970;2024-01-10T14:00:40;21.48;38.08
67064;SHT30;58476;48.072;11.970;2024-01-10T14:03:06;21.35;36.03
67064;SHT30;58476;48.072;11.970;2024-01-10T14:05:31;21.23;39.86
67064;SHT30;58476;48.072;11.970;2024-01-10T14:07:56;21.17;35.75
67064;SHT30;58476;48.072;11.970;2024-01-10T14:10:22;21.20;37.57
67064;SHT30;58476;48.072;11.970;2024-01-10T14:12:48;21.18;38.39
67064;SHT30;58476;48.072;11.970;2024-01-10T14:15:13;21.18;38.86
67064;SHT30;58476;48.072;11.970;2024-01-10T14:17:39;21.15;39.31
67064;SHT30;58476;48.072;11.970;2024-01-10T14:20:06;21.20;39.56
67064;SHT30;58476;48.072;11.970;2024-01-10T14:22:31;21.20;39.67
67064;SHT30;58476;48.072;11.970;2024-01-10T14:24:57;21.20;40.05
67064;SHT30;58476;48.072;11.970;2024-01-10T14:27:23;21.21;40.23
67064;SHT30;58476;48.072;11.970;2024-01-10T14:29:48;21.25;40.94
67064;SHT30;58476;48.072;11.970;2024-01-10T14:32:14;21.28;41.39
67064;SHT30;58476;48.072;11.970;2024-01-10T14:34:39;21.31;41.50
67064;SHT30;58476;48.072;11.970;2024-01-10T14:37:05;21.31;42.36
67064;SHT30;58476;48.072;11.970;2024-01-10T14:39:30;21.35;42.62
67064;SHT30;58476;48.072;11.970;2024-01-10T14:41:55;21.38;42.70
67064;SHT30;58476;48.072;11.970;2024-01-10T14:44:21;21.48;42.89
67064;SHT30;58476;48.072;11.970;2024-01-10T14:46:46;21.51;43.12
67064;SHT30;58476;48.072;11.970;2024-01-10T14:49:12;21.56;43.29
67064;SHT30;58476;48.072;11.970;2024-01-10T14:51:38;21.55;43.72
67064;SHT30;58476;48.072;11.970;2024-01-10T14:54:06;21.58;43.65
67064;SHT30;58476;48.072;11.970;2024-01-10T14:56:32;21.61;43.73
67064;SHT30;58476;48.072;11.970;2024-01-10T14:59:00;21.66;43.80
67064;SHT30;58476;48.072;11.970;2024-01-10T15:01:26;21.63;43.96
67064;SHT30;58476;48.072;11.970;2024-01-10T15:03:57;21.68;43.98
67064;SHT30;58476;48.072;11.970;2024-01-10T15:06:25;21.69;44.11
67064;SHT30;58476;48.072;11.970;2024-01-10T15:08:53;21.78;44.20
67064;SHT30;58476;48.072;11.970;2024-01-10T15:11:24;21.78;44.01
67064;SHT30;58476;48.072;11.970;2024-01-10T15:13:58;21.82;44.09
67064;SHT30;58476;48.072;11.970;2024-01-10T15:16:27;21.88;43.81
67064;SHT30;58476;48.072;11.970;2024-01-10T15:18:56;21.86;43.38
67064;SHT30;58476;48.072;11.970;2024-01-10T15:21:24;21.89;43.11
67064;SHT30;58476;48.072;11.970;2024-01-10T15:23:51;21.89;43.21
67064;SHT30;58476;48.072;11.970;2024-01-10T15:26:20;21.90;43.33